createdAt,value
2019-01-21T00:01:34.315Z,4.22
2019-01-21T00:09:33.537Z,3.76
2019-01-21T00:17:46.987Z,4.36
2019-01-21T00:20:17.370Z,4.67
2019-01-21T00:22:47.626Z,4.46
2019-01-21T00:25:17.804Z,4.79
2019-01-21T00:27:47.982Z,4.87
2019-01-21T00:30:18.259Z,4.81
2019-01-21T00:32:48.511Z,4.74
2019-01-21T00:35:19.003Z,4.79
2019-01-21T00:37:49.178Z,4.69
2019-01-21T00:40:19.482Z,4.86
2019-01-21T00:42:49.746Z,4.87
2019-01-21T00:45:20.013Z,4.99
2019-01-21T00:47:50.207Z,5.09
2019-01-21T00:50:20.488Z,5.16
2019-01-21T00:52:50.758Z,5.19
2019-01-21T00:55:20.957Z,5.19
2019-01-21T00:57:51.239Z,5.22
2019-01-21T01:00:23.732Z,5.20
2019-01-21T01:02:53.924Z,5.16
2019-01-21T01:08:20.848Z,5.02
2019-01-21T01:10:51.199Z,4.20
2019-01-21T01:13:21.381Z,3.56
2019-01-21T01:15:51.639Z,3.22
2019-01-21T01:18:21.949Z,3.64
2019-01-21T01:20:52.132Z,3.48
2019-01-21T01:23:22.338Z,2.95
2019-01-21T01:25:52.610Z,1.54
2019-01-21T01:28:22.882Z,3.88
2019-01-21T01:30:53.053Z,3.89
2019-01-21T01:33:23.226Z,4.33
2019-01-21T01:35:53.495Z,4.32
2019-01-21T01:38:23.653Z,4.48
2019-01-21T01:40:53.926Z,4.29
2019-01-21T01:43:24.191Z,4.02
2019-01-21T01:45:54.370Z,3.55
2019-01-21T01:48:24.522Z,3.53
2019-01-21T01:50:54.798Z,3.21
2019-01-21T01:53:25.083Z,2.66
2019-01-21T01:55:55.307Z,2.84
2019-01-21T01:58:25.481Z,2.66
2019-01-21T02:00:55.751Z,2.53
2019-01-21T02:03:26.040Z,2.54
2019-01-21T02:05:56.223Z,2.86
2019-01-21T02:13:48.607Z,3.29
2019-01-21T02:16:19.086Z,3.37
2019-01-21T02:18:49.272Z,3.58
2019-01-21T02:31:31.052Z,3.74
2019-01-21T02:37:47.249Z,3.32
2019-01-21T02:44:03.393Z,3.05
2019-01-21T02:46:55.974Z,3.27
2019-01-21T02:52:48.321Z,3.12
2019-01-21T02:55:46.885Z,3.40
2019-01-21T03:04:54.486Z,3.08
2019-01-21T03:07:56.016Z,2.31
2019-01-21T03:10:52.640Z,2.08
2019-01-21T03:16:59.448Z,2.56
2019-01-21T03:26:19.511Z,2.87
2019-01-21T03:29:13.055Z,2.22
2019-01-21T03:35:40.171Z,2.43
2019-01-21T03:38:57.401Z,2.43
2019-01-21T03:47:50.483Z,1.84
2019-01-21T03:57:07.253Z,2.40
2019-01-21T03:59:59.951Z,2.42
2019-01-21T04:03:17.348Z,2.26
2019-01-21T04:09:19.978Z,2.46
2019-01-21T04:15:52.015Z,2.53
2019-01-21T04:18:59.718Z,2.58
2019-01-21T04:28:19.899Z,2.80
2019-01-21T04:31:27.728Z,2.84
2019-01-21T04:37:30.150Z,2.82
2019-01-21T04:40:37.945Z,2.72
2019-01-21T04:46:38.279Z,2.50
2019-01-21T04:52:52.000Z,2.68
2019-01-21T04:55:59.812Z,2.79
2019-01-21T05:02:29.941Z,2.88
2019-01-21T05:05:27.531Z,2.96
2019-01-21T05:11:55.547Z,2.78
2019-01-21T05:21:03.984Z,3.09
2019-01-21T05:30:32.595Z,2.99
2019-01-21T05:36:23.308Z,2.58
2019-01-21T05:42:36.519Z,2.58
2019-01-21T05:45:44.210Z,2.65
2019-01-21T05:54:44.395Z,2.47
2019-01-21T06:00:32.772Z,2.32
2019-01-21T06:10:29.655Z,1.13
2019-01-21T06:13:37.351Z,1.23
2019-01-21T06:19:40.813Z,1.67
2019-01-21T06:22:34.810Z,2.01
2019-01-21T06:25:42.629Z,1.96
2019-01-21T06:28:50.408Z,2.24
2019-01-21T06:31:47.300Z,2.25
2019-01-21T06:37:38.582Z,2.30
2019-01-21T06:40:46.829Z,2.36
2019-01-21T06:47:02.554Z,2.11
2019-01-21T06:55:51.198Z,1.89
2019-01-21T07:02:06.427Z,2.42
2019-01-21T07:08:19.109Z,2.70
2019-01-21T07:17:50.446Z,3.33
2019-01-21T07:20:58.155Z,2.96
2019-01-21T07:24:01.455Z,3.21
2019-01-21T07:27:09.140Z,3.48
2019-01-21T07:30:17.063Z,3.74
2019-01-21T07:33:34.411Z,3.87
2019-01-21T07:36:43.485Z,3.72
2019-01-21T07:39:36.227Z,3.52
2019-01-21T07:45:56.537Z,3.73
2019-01-21T07:59:05.787Z,2.75
2019-01-21T08:05:15.427Z,3.19
2019-01-21T08:11:29.612Z,4.38
2019-01-21T08:14:22.192Z,4.63
2019-01-21T08:24:10.633Z,4.87
2019-01-21T08:27:21.898Z,5.03
2019-01-21T08:30:19.257Z,5.18
2019-01-21T08:39:39.582Z,4.49
2019-01-21T08:51:45.542Z,5.79
2019-01-21T08:54:58.998Z,6.21
2019-01-21T09:00:40.979Z,6.29
2019-01-21T09:09:21.495Z,6.32
2019-01-21T09:12:07.268Z,6.13
2019-01-21T09:21:18.994Z,6.32
2019-01-21T09:33:42.980Z,7.25
2019-01-21T10:05:02.827Z,7.37
2019-01-21T10:13:41.687Z,8.29
2019-01-21T10:25:31.933Z,8.64
2019-01-21T10:31:24.312Z,8.87
2019-01-21T10:37:18.110Z,10.68
2019-01-21T10:43:27.485Z,12.10
2019-01-21T10:46:20.774Z,13.18
2019-01-21T10:49:28.660Z,13.87
2019-01-21T10:56:16.507Z,14.44
2019-01-21T10:59:24.282Z,15.45
2019-01-21T11:08:24.494Z,16.07
2019-01-21T11:14:33.778Z,15.87
2019-01-21T11:23:17.586Z,16.55
2019-01-21T11:29:01.344Z,16.93
2019-01-21T11:41:58.298Z,17.52
2019-01-21T11:51:04.167Z,17.71
2019-01-21T11:54:07.510Z,17.57
2019-01-21T12:00:07.000Z,17.09
2019-01-21T12:15:18.950Z,17.34
2019-01-21T12:18:28.016Z,17.69
2019-01-21T12:24:48.862Z,18.94
2019-01-21T12:30:44.631Z,19.55
2019-01-21T12:36:34.169Z,18.81
2019-01-21T12:39:23.039Z,19.32
2019-01-21T12:45:39.832Z,19.45
2019-01-21T12:55:09.380Z,18.83
2019-01-21T13:04:11.267Z,17.35
2019-01-21T13:07:04.530Z,16.73
2019-01-21T13:09:57.861Z,17.22
2019-01-21T13:19:57.043Z,14.76
2019-01-21T13:28:51.671Z,16.32
2019-01-21T13:41:26.151Z,14.91
2019-01-21T13:47:44.744Z,14.06
2019-01-21T13:53:42.543Z,13.74
2019-01-21T14:03:18.272Z,12.88
2019-01-21T14:12:02.191Z,12.29
2019-01-21T14:14:41.716Z,11.78
2019-01-21T14:20:49.190Z,11.52
2019-01-21T14:39:46.338Z,11.17
2019-01-21T14:45:58.945Z,10.69
2019-01-21T15:05:07.506Z,10.57
2019-01-21T15:11:06.683Z,10.39
2019-01-21T15:14:14.627Z,10.19
2019-01-21T15:20:37.994Z,9.70
2019-01-21T15:26:28.778Z,8.18
2019-01-21T15:29:36.563Z,9.43
2019-01-21T15:35:35.085Z,9.19
2019-01-21T15:38:49.363Z,9.07
2019-01-21T15:48:27.668Z,7.96
2019-01-21T15:51:35.574Z,7.42
2019-01-21T15:54:43.481Z,7.10
2019-01-21T15:57:58.799Z,7.57
2019-01-21T16:01:06.613Z,7.32
2019-01-21T16:10:22.301Z,7.16
2019-01-21T16:13:14.458Z,7.28
2019-01-21T16:16:22.365Z,6.94
2019-01-21T16:19:13.515Z,6.88
2019-01-21T16:25:23.342Z,6.93
2019-01-21T16:34:40.974Z,6.76
2019-01-21T16:37:20.934Z,6.73
2019-01-21T16:40:26.041Z,6.63
2019-01-21T16:42:56.425Z,6.61
2019-01-21T16:45:26.759Z,6.55
2019-01-21T16:47:56.967Z,6.55
2019-01-21T16:50:27.212Z,6.54
2019-01-21T16:52:57.515Z,6.55
2019-01-21T16:55:27.801Z,6.31
2019-01-21T16:57:59.285Z,6.36
2019-01-21T17:00:30.057Z,6.59
2019-01-21T17:03:00.463Z,6.52
2019-01-21T17:05:30.728Z,6.48
2019-01-21T17:08:00.966Z,6.34
2019-01-21T17:10:31.211Z,6.39
2019-01-21T17:13:01.398Z,6.29
2019-01-21T17:15:31.642Z,6.10
2019-01-21T17:18:01.950Z,6.09
2019-01-21T17:20:32.190Z,5.83
2019-01-21T17:23:02.385Z,6.09
2019-01-21T17:25:32.676Z,6.15
2019-01-21T17:28:02.989Z,6.16
2019-01-21T17:30:33.223Z,5.87
2019-01-21T17:33:03.448Z,4.54
2019-01-21T17:35:33.691Z,6.04
2019-01-21T17:38:04.486Z,6.14
2019-01-21T17:40:34.728Z,6.20
2019-01-21T17:43:05.016Z,6.30
2019-01-21T17:45:35.257Z,6.29
2019-01-21T17:51:02.318Z,6.14
2019-01-21T17:53:32.629Z,6.05
2019-01-21T17:56:02.945Z,6.07
2019-01-21T17:58:33.346Z,6.07
2019-01-21T18:01:03.659Z,5.99
2019-01-21T18:03:33.898Z,6.17
2019-01-21T18:06:04.136Z,6.31
2019-01-21T18:08:34.797Z,6.34
2019-01-21T18:11:05.097Z,6.38
2019-01-21T18:13:35.314Z,6.42
2019-01-21T18:16:05.598Z,6.49
2019-01-21T18:18:35.889Z,6.52
2019-01-21T18:21:07.486Z,6.52
2019-01-21T18:23:38.338Z,6.52
2019-01-21T18:26:08.526Z,6.39
2019-01-21T18:28:38.818Z,6.53
2019-01-21T18:31:09.018Z,6.64
2019-01-21T18:33:39.303Z,6.58
2019-01-21T18:36:09.673Z,6.44
2019-01-21T18:38:39.870Z,6.40
2019-01-21T18:41:10.081Z,6.39
2019-01-21T18:43:40.367Z,6.42
2019-01-21T18:46:10.646Z,6.43
2019-01-21T18:48:40.845Z,5.91
2019-01-21T18:51:11.024Z,5.74
2019-01-21T18:53:41.336Z,5.56
2019-01-21T18:56:11.623Z,5.82
2019-01-21T18:58:41.822Z,5.92
2019-01-21T19:01:12.024Z,5.83
2019-01-21T19:03:42.328Z,5.97
2019-01-21T19:06:12.594Z,5.62
2019-01-21T19:08:42.835Z,5.88
2019-01-21T19:11:13.146Z,5.92
2019-01-21T19:13:43.354Z,6.02
2019-01-21T19:16:13.550Z,5.97
2019-01-21T19:18:43.839Z,6.14
2019-01-21T19:21:14.129Z,6.09
2019-01-21T19:23:44.535Z,5.97
2019-01-21T19:26:14.916Z,6.09
2019-01-21T19:28:45.214Z,6.17
2019-01-21T19:31:15.553Z,6.20
2019-01-21T19:33:45.760Z,6.24
2019-01-21T19:36:15.957Z,5.99
2019-01-21T19:38:46.228Z,6.11
2019-01-21T19:41:16.549Z,6.15
2019-01-21T19:43:46.749Z,6.19
2019-01-21T19:46:17.069Z,6.21
2019-01-21T19:48:47.388Z,6.28
2019-01-21T19:51:17.605Z,6.16
2019-01-21T19:53:47.911Z,6.00
2019-01-21T19:56:18.185Z,6.18
2019-01-21T19:58:48.779Z,6.22
2019-01-21T20:01:18.988Z,6.15
2019-01-21T20:03:49.263Z,6.25
2019-01-21T20:06:19.700Z,6.20
2019-01-21T20:08:50.031Z,6.20
2019-01-21T20:11:20.247Z,5.88
2019-01-21T20:13:50.569Z,5.87
2019-01-21T20:16:20.851Z,6.02
2019-01-21T20:18:51.051Z,6.14
2019-01-21T20:21:21.240Z,6.16
2019-01-21T20:23:51.830Z,6.22
2019-01-21T20:26:22.267Z,6.25
2019-01-21T20:28:52.490Z,6.20
2019-01-21T20:31:22.904Z,6.30
2019-01-21T20:33:53.123Z,6.36
2019-01-21T20:36:23.414Z,6.34
2019-01-21T20:38:53.724Z,6.32
2019-01-21T20:41:24.005Z,6.21
2019-01-21T20:43:54.255Z,6.17
2019-01-21T20:46:24.458Z,6.19
2019-01-21T20:48:57.471Z,6.04
2019-01-21T20:51:27.777Z,6.01
2019-01-21T20:53:58.001Z,5.91
2019-01-21T20:56:28.180Z,5.85
2019-01-21T20:58:58.490Z,5.81
2019-01-21T21:01:28.785Z,5.60
2019-01-21T21:03:58.967Z,5.46
2019-01-21T21:06:29.281Z,5.56
2019-01-21T21:08:59.581Z,5.54
2019-01-21T21:11:29.777Z,5.59
2019-01-21T21:14:00.070Z,5.60
2019-01-21T21:16:30.367Z,5.66
2019-01-21T21:19:00.566Z,5.66
2019-01-21T21:21:30.747Z,5.61
2019-01-21T21:24:01.062Z,5.62
2019-01-21T21:26:31.653Z,5.63
2019-01-21T21:29:02.254Z,5.68
2019-01-21T21:31:32.610Z,5.69
2019-01-21T21:34:02.912Z,5.65
2019-01-21T21:36:35.035Z,5.61
2019-01-21T21:42:16.050Z,5.73
2019-01-21T21:44:46.380Z,5.74
2019-01-21T21:47:16.696Z,5.69
2019-01-21T21:49:46.905Z,5.77
2019-01-21T21:52:17.195Z,5.70
2019-01-21T21:54:47.460Z,5.77
2019-01-21T21:57:17.679Z,5.81
2019-01-21T21:59:47.999Z,5.87
2019-01-21T22:02:18.321Z,5.82
2019-01-21T22:04:48.500Z,5.98
2019-01-21T22:07:18.667Z,5.82
2019-01-21T22:09:48.967Z,5.72
2019-01-21T22:12:19.271Z,5.74
2019-01-21T22:14:49.461Z,5.91
2019-01-21T22:17:19.745Z,5.92
2019-01-21T22:19:50.025Z,5.85
2019-01-21T22:22:20.325Z,6.03
2019-01-21T22:24:50.753Z,6.17
2019-01-21T22:27:22.595Z,5.73
2019-01-21T22:29:54.718Z,5.84
2019-01-21T22:32:24.916Z,6.11
2019-01-21T22:34:55.309Z,5.96
2019-01-21T22:37:25.601Z,5.90
2019-01-21T22:39:55.823Z,6.15
2019-01-21T22:42:26.036Z,6.22
2019-01-21T22:44:56.316Z,6.34
2019-01-21T22:47:26.587Z,6.31
2019-01-21T22:49:56.750Z,6.35
2019-01-21T22:52:26.938Z,6.44
2019-01-21T22:54:57.212Z,6.47
2019-01-21T22:57:27.516Z,6.48
2019-01-21T22:59:57.710Z,6.08
2019-01-21T23:02:28.056Z,5.79
2019-01-21T23:04:58.641Z,5.98
2019-01-21T23:07:28.967Z,6.09
2019-01-21T23:09:59.155Z,6.15
2019-01-21T23:12:29.411Z,6.14
2019-01-21T23:14:59.702Z,6.30
2019-01-21T23:17:30.178Z,6.31
2019-01-21T23:20:00.360Z,6.19
2019-01-21T23:22:30.563Z,6.25
2019-01-21T23:25:00.845Z,6.25
2019-01-21T23:27:31.161Z,6.19
2019-01-21T23:30:01.968Z,5.87
2019-01-21T23:32:32.178Z,5.65
2019-01-21T23:35:02.518Z,6.16
2019-01-21T23:37:32.905Z,6.19
2019-01-21T23:40:03.100Z,6.18
2019-01-21T23:42:33.293Z,6.13
2019-01-21T23:45:03.387Z,5.80
2019-01-21T23:47:33.482Z,5.54
2019-01-21T23:50:03.560Z,5.86
2019-01-21T23:52:33.452Z,6.10
2019-01-21T23:55:03.326Z,6.17
2019-01-21T23:57:33.524Z,6.27
